Terminal Aerodrome Forecast
Issued by NWS Paducah, KY

Home | Current Version | Previous Version | Text Only | Print | Product List | Glossary On
Versions: 1 2 3 4 5 6 7 8 9 10 11 12
000
FTUS43 KPAH 042336
TAFPAH
TAF
KPAH 042336Z 0500/0524 VRB03KT P6SM SCT060 BKN200
     FM051100 06003KT P6SM VCSH SCT060 BKN150 PROB30 0512/0518 3SM
      TSRA BKN035CB
     FM051800 14004KT P6SM VCSH BKN035=

USA.gov is the U.S. government's official web portal to all federal, state and local government web resources and services.